Time;durP1;ratioP1;P1;durP2;ratioP2;P2;SDS_P1;SDS_P2;PMS_P1;PMS_P2;Temp;Humidity;BMP_temperature;BMP_pressure;BME280_temperature;BME280_humidity;BME280_pressure;Samples;Min_cycle;Max_cycle;Signal;HPM_P1;HPM_P2
2023/01/21 00:01:45;;;;;;;4.43;4.03;;;;;;;1.42;94.38;100645.84;5019193;28;20257;-75
2023/01/21 00:04:11;;;;;;;4.43;4.00;;;;;;;1.42;94.72;100647.53;5009669;28;20199;-76
2023/01/21 00:06:36;;;;;;;4.50;3.70;;;;;;;1.41;94.81;100644.13;5014360;28;20216;-76
2023/01/21 00:09:02;;;;;;;4.40;4.00;;;;;;;1.41;94.88;100651.75;5016420;28;20254;-72
2023/01/21 00:11:28;;;;;;;4.03;3.60;;;;;;;1.41;95.17;100645.78;5011775;28;20836;-72
2023/01/21 00:13:53;;;;;;;3.67;3.30;;;;;;;1.42;95.44;100650.06;5009604;28;20188;-73
2023/01/21 00:16:19;;;;;;;4.23;3.20;;;;;;;1.43;95.48;100647.59;5017403;28;20641;-73
2023/01/21 00:18:46;;;;;;;3.67;3.17;;;;;;;1.42;95.45;100645.84;5025389;28;20202;-73
2023/01/21 00:21:12;;;;;;;3.40;3.03;;;;;;;1.41;95.17;100646.66;5014754;28;20682;-72
2023/01/21 00:23:38;;;;;;;3.93;3.07;;;;;;;1.39;95.32;100655.06;5018928;28;20225;-72
2023/01/21 00:26:05;;;;;;;3.20;2.90;;;;;;;1.35;95.39;100657.53;5020082;28;20656;-73
2023/01/21 00:28:32;;;;;;;2.80;2.57;;;;;;;1.33;95.26;100659.16;5020554;28;20183;-72
2023/01/21 00:30:58;;;;;;;3.20;2.50;;;;;;;1.30;95.36;100659.03;5029454;28;20223;-72
2023/01/21 00:33:24;;;;;;;3.97;2.90;;;;;;;1.30;95.17;100660.69;5036021;28;20194;-74
2023/01/21 00:36:04;;;;;;;3.30;3.00;;;;;;;1.27;95.17;100665.72;5024830;28;20302;-72
2023/01/21 00:38:30;;;;;;;3.83;2.97;;;;;;;1.23;94.79;100651.97;5019425;28;20191;-72
2023/01/21 00:41:07;;;;;;;3.57;2.83;;;;;;;1.24;95.10;100660.50;5050002;28;20207;-76
2023/01/21 00:43:33;;;;;;;2.90;2.60;;;;;;;1.19;95.10;100656.09;5049011;28;20280;-72
2023/01/21 00:45:58;;;;;;;2.93;2.50;;;;;;;1.16;95.40;100661.09;5017254;28;20308;-72
2023/01/21 00:48:24;;;;;;;2.77;2.57;;;;;;;1.16;95.66;100663.63;5021432;28;20176;-74
2023/01/21 00:50:50;;;;;;;3.37;2.60;;;;;;;1.14;95.93;100666.97;5018143;28;20258;-73
2023/01/21 00:53:17;;;;;;;3.87;2.60;;;;;;;1.12;96.12;100669.47;5017501;28;20638;-72
2023/01/21 00:55:42;;;;;;;3.73;2.77;;;;;;;1.09;96.52;100666.81;5017397;28;20215;-73
2023/01/21 00:58:07;;;;;;;4.87;2.70;;;;;;;1.09;96.86;100668.47;5026483;28;20804;-72
2023/01/21 01:00:33;;;;;;;4.23;2.70;;;;;;;1.05;97.10;100677.69;5019136;28;20206;-75
2023/01/21 01:02:58;;;;;;;3.60;2.47;;;;;;;1.04;97.19;100678.50;5029631;28;20191;-75
2023/01/21 01:05:23;;;;;;;2.83;2.60;;;;;;;1.03;97.52;100680.19;5020939;28;20290;-75
2023/01/21 01:07:49;;;;;;;2.73;2.50;;;;;;;1.02;97.39;100680.13;5032379;28;20176;-75
2023/01/21 01:10:15;;;;;;;2.93;2.37;;;;;;;1.01;97.19;100686.91;5029019;28;20190;-73
2023/01/21 01:12:41;;;;;;;3.97;2.53;;;;;;;1.01;96.88;100691.13;5031363;28;20187;-75
2023/01/21 01:15:07;;;;;;;3.00;2.73;;;;;;;1.01;96.79;100691.13;5021951;28;20204;-74
2023/01/21 01:17:33;;;;;;;2.53;2.20;;;;;;;1.01;96.64;100696.22;5028657;28;20183;-75
2023/01/21 01:19:58;;;;;;;2.93;2.60;;;;;;;1.00;96.86;100699.59;5026757;28;20632;-75
2023/01/21 01:22:24;;;;;;;4.33;3.20;;;;;;;0.99;96.37;100698.72;5025882;28;20199;-72
2023/01/21 01:24:49;;;;;;;3.90;2.93;;;;;;;0.97;96.45;100704.59;5038841;28;20203;-73
2023/01/21 01:27:14;;;;;;;3.80;3.23;;;;;;;0.97;96.78;100700.34;5032538;28;20195;-74
2023/01/21 01:29:40;;;;;;;3.47;3.17;;;;;;;0.96;96.51;100706.25;5025217;28;20245;-74
2023/01/21 01:32:05;;;;;;;3.80;3.43;;;;;;;0.96;96.52;100711.34;5031152;28;20302;-74
2023/01/21 01:34:30;;;;;;;4.10;3.70;;;;;;;0.98;96.31;100713.97;5026285;28;20215;-73
2023/01/21 01:36:56;;;;;;;4.93;3.87;;;;;;;0.96;95.90;100713.91;5023751;28;20743;-73
2023/01/21 01:39:21;;;;;;;4.10;3.70;;;;;;;0.93;95.72;100718.03;5016952;28;20571;-73
2023/01/21 01:41:46;;;;;;;4.40;3.93;;;;;;;0.89;95.91;100717.06;5022535;28;20205;-73
2023/01/21 01:44:49;;;;;;;4.50;3.97;;;;;;;0.88;96.01;100725.50;5024052;28;20604;-73
2023/01/21 01:47:15;;;;;;;4.70;3.97;;;;;;;0.84;96.07;100731.28;5027450;28;20188;-73
2023/01/21 01:49:41;;;;;;;3.97;3.57;;;;;;;0.81;95.83;100732.06;5025650;28;20201;-73
2023/01/21 01:52:09;;;;;;;3.90;3.50;;;;;;;0.83;95.14;100734.66;5029190;28;20267;-73
2023/01/21 01:54:44;;;;;;;4.07;3.63;;;;;;;0.82;95.07;100736.34;5019678;28;21063;-71
2023/01/21 01:57:13;;;;;;;4.43;3.40;;;;;;;0.83;94.94;100740.59;5026164;28;20180;-73
2023/01/21 01:59:40;;;;;;;4.37;3.30;;;;;;;0.85;94.58;100743.22;5016050;28;20184;-76
2023/01/21 02:02:10;;;;;;;4.17;2.97;;;;;;;0.84;94.86;100744.88;5015007;28;20758;-76
2023/01/21 02:04:44;;;;;;;3.30;3.00;;;;;;;0.83;94.56;100744.84;5021329;28;20273;-75
2023/01/21 02:07:10;;;;;;;3.73;3.13;;;;;;;0.86;94.08;100748.38;5023039;28;20223;-77
2023/01/21 02:09:36;;;;;;;3.17;2.70;;;;;;;0.86;94.05;100750.91;5016927;28;20219;-76
2023/01/21 02:12:03;;;;;;;2.97;2.67;;;;;;;0.88;93.40;100756.09;5013630;28;20288;-72
2023/01/21 02:14:30;;;;;;;3.73;3.03;;;;;;;0.90;92.99;100760.41;5021114;28;20229;-73
2023/01/21 02:17:07;;;;;;;3.57;2.60;;;;;;;0.93;92.71;100763.91;5016380;28;20206;-72
2023/01/21 02:19:57;;;;;;;3.00;2.70;;;;;;;0.93;92.86;100764.75;5021424;28;20190;-72
2023/01/21 02:22:28;;;;;;;2.90;2.70;;;;;;;0.96;91.76;100761.47;5014637;28;20694;-73
2023/01/21 02:25:05;;;;;;;2.97;2.73;;;;;;;0.96;91.78;100756.38;5014075;28;20180;-72
2023/01/21 02:27:48;;;;;;;2.73;2.37;;;;;;;0.94;91.77;100761.41;5019473;28;20242;-74
2023/01/21 02:30:38;;;;;;;2.53;2.30;;;;;;;0.94;91.85;100763.09;5015545;28;20194;-73
2023/01/21 02:33:33;;;;;;;3.17;2.87;;;;;;;0.93;91.72;100764.75;5016711;28;20199;-72
2023/01/21 02:36:13;;;;;;;3.20;2.90;;;;;;;0.89;91.51;100762.91;5014906;28;20756;-74
2023/01/21 02:39:05;;;;;;;3.43;2.90;;;;;;;0.84;91.45;100762.72;5021703;28;20191;-74
2023/01/21 02:41:49;;;;;;;3.10;2.80;;;;;;;0.83;91.55;100762.69;5024037;28;20211;-75
2023/01/21 02:44:38;;;;;;;3.50;3.20;;;;;;;0.80;92.53;100773.63;5020189;28;20819;-74
2023/01/21 02:47:16;;;;;;;4.87;3.97;;;;;;;0.74;93.28;100774.25;5019355;28;20271;-77
2023/01/21 02:49:52;;;;;;;5.23;4.07;;;;;;;0.69;94.68;100775.75;5018475;28;20590;-76
2023/01/21 02:52:23;;;;;;;5.50;5.00;;;;;;;0.55;95.67;100780.28;5037760;28;20211;-76
2023/01/21 02:54:57;;;;;;;5.63;4.90;;;;;;;0.41;96.51;100773.78;5054456;28;20203;-72
2023/01/21 02:57:29;;;;;;;4.87;4.37;;;;;;;0.30;97.23;100778.47;5026077;28;20581;-74
2023/01/21 02:59:56;;;;;;;5.07;4.50;;;;;;;0.21;98.09;100781.50;5031474;28;20186;-72
2023/01/21 03:03:00;;;;;;;5.37;4.80;;;;;;;0.17;98.72;100781.28;5023390;28;20272;-72
2023/01/21 03:05:55;;;;;;;5.03;4.53;;;;;;;0.07;99.15;100782.59;4995701;28;20740;-75
2023/01/21 03:08:29;;;;;;;4.80;4.40;;;;;;;0.01;99.67;100788.28;5027466;28;20253;-74
2023/01/21 03:11:07;;;;;;;6.57;4.83;;;;;;;-0.03;100.00;100791.53;5016845;28;20233;-74
2023/01/21 03:19:18;;;;;;;4.87;4.37;;;;;;;-0.22;100.00;100803.44;5023200;28;20198;-71
2023/01/21 03:21:45;;;;;;;5.43;4.93;;;;;;;-0.31;100.00;100808.16;5028480;28;20305;-71
2023/01/21 03:24:13;;;;;;;6.13;5.53;;;;;;;-0.37;100.00;100802.78;5025825;28;20740;-74
2023/01/21 03:26:43;;;;;;;5.70;5.17;;;;;;;-0.41;100.00;100804.31;5038928;28;20186;-72
2023/01/21 03:29:13;;;;;;;5.97;5.40;;;;;;;-0.48;100.00;100803.19;5029144;28;20198;-72
2023/01/21 03:31:42;;;;;;;7.00;6.00;;;;;;;-0.57;100.00;100807.00;5019941;28;20587;-72
2023/01/21 03:34:10;;;;;;;6.97;6.27;;;;;;;-0.59;100.00;100804.34;5009233;28;20198;-72
2023/01/21 03:36:53;;;;;;;7.50;6.80;;;;;;;-0.66;100.00;100809.97;5029283;28;20195;-73
2023/01/21 03:39:45;;;;;;;7.53;6.77;;;;;;;-0.73;100.00;100805.41;5016951;28;20245;-73
2023/01/21 03:42:12;;;;;;;7.53;6.57;;;;;;;-0.84;100.00;100810.03;5016402;28;20222;-72
2023/01/21 03:44:38;;;;;;;6.87;6.17;;;;;;;-0.94;100.00;100806.19;5021733;28;20190;-72
2023/01/21 03:47:30;;;;;;;6.70;6.10;;;;;;;-1.05;100.00;100814.97;5024814;28;20604;-72
2023/01/21 03:50:18;;;;;;;7.87;6.17;;;;;;;-1.13;100.00;100817.13;5012285;28;20187;-75
2023/01/21 03:52:44;;;;;;;7.03;6.33;;;;;;;-1.18;100.00;100821.16;5012070;28;20241;-74
2023/01/21 03:55:11;;;;;;;7.00;6.20;;;;;;;-1.23;100.00;100828.56;5024866;28;20662;-74
2023/01/21 03:57:37;;;;;;;6.73;6.10;;;;;;;-1.28;100.00;100819.84;5017738;28;20218;-75
2023/01/21 04:00:04;;;;;;;8.47;6.40;;;;;;;-1.34;100.00;100819.53;5019212;28;20222;-74
2023/01/21 04:02:29;;;;;;;7.70;6.90;;;;;;;-1.38;100.00;100821.94;5030539;28;20799;-75
2023/01/21 04:04:54;;;;;;;7.20;6.50;;;;;;;-1.43;100.00;100828.47;5018791;28;20194;-74
2023/01/21 04:07:20;;;;;;;7.50;6.80;;;;;;;-1.43;100.00;100835.19;5018960;28;20839;-74
2023/01/21 04:09:45;;;;;;;8.07;6.83;;;;;;;-1.42;100.00;100836.94;5021559;28;20204;-72
2023/01/21 04:12:11;;;;;;;7.23;6.53;;;;;;;-1.49;100.00;100845.06;5015608;28;20208;-71
2023/01/21 04:14:36;;;;;;;8.07;7.27;;;;;;;-1.54;100.00;100843.16;5030054;28;20209;-72
2023/01/21 04:17:02;;;;;;;8.03;7.23;;;;;;;-1.58;100.00;100851.41;5023958;28;20278;-75
2023/01/21 04:19:27;;;;;;;8.30;7.17;;;;;;;-1.63;100.00;100855.41;5031386;28;20194;-72
2023/01/21 04:21:53;;;;;;;8.10;6.80;;;;;;;-1.67;100.00;100858.59;5011582;28;20210;-72
2023/01/21 04:24:18;;;;;;;7.37;6.37;;;;;;;-1.72;100.00;100852.41;5024382;28;20185;-70
2023/01/21 04:26:43;;;;;;;7.10;6.20;;;;;;;-1.81;100.00;100857.88;5025950;28;20192;-73
2023/01/21 04:29:08;;;;;;;7.33;6.53;;;;;;;-1.86;100.00;100859.34;5016287;28;20253;-74
2023/01/21 04:31:34;;;;;;;7.13;6.43;;;;;;;-1.87;100.00;100863.53;5021746;28;20310;-75
2023/01/21 04:33:59;;;;;;;6.70;6.00;;;;;;;-1.87;100.00;100866.06;5025703;28;20193;-74
2023/01/21 04:36:24;;;;;;;7.63;6.57;;;;;;;-1.88;100.00;100874.47;5024318;28;20669;-75
2023/01/21 04:38:50;;;;;;;7.80;6.83;;;;;;;-1.84;100.00;100870.44;5016846;28;20193;-75
2023/01/21 04:41:15;;;;;;;7.23;6.27;;;;;;;-1.85;100.00;100876.31;5013989;28;20259;-73
2023/01/21 04:43:40;;;;;;;8.30;7.40;;;;;;;-1.77;100.00;100877.53;5017872;28;20296;-72
2023/01/21 04:46:06;;;;;;;8.70;7.50;;;;;;;-1.67;100.00;100873.81;5025753;28;20256;-74
2023/01/21 04:48:32;;;;;;;9.23;7.90;;;;;;;-1.61;100.00;100883.41;5018047;28;20194;-73
2023/01/21 04:50:57;;;;;;;8.40;7.50;;;;;;;-1.49;100.00;100888.22;5020590;28;20876;-73
2023/01/21 04:53:23;;;;;;;7.77;6.97;;;;;;;-1.46;100.00;100896.84;5016504;28;20204;-73
2023/01/21 04:55:50;;;;;;;8.13;6.83;;;;;;;-1.46;100.00;100888.38;5029365;28;20263;-74
2023/01/21 04:58:16;;;;;;;8.07;7.27;;;;;;;-1.42;100.00;100890.25;5018885;28;20205;-75
2023/01/21 05:00:41;;;;;;;6.47;5.87;;;;;;;-1.32;100.00;100894.13;5019479;28;20209;-75
2023/01/21 05:03:06;;;;;;;7.27;6.50;;;;;;;-1.32;100.00;100899.19;5031832;28;20179;-77
2023/01/21 05:05:32;;;;;;;6.70;6.00;;;;;;;-1.32;100.00;100899.19;5057815;28;20170;-78
2023/01/21 05:07:57;;;;;;;6.93;6.23;;;;;;;-1.36;100.00;100907.50;5028214;28;20194;-75
2023/01/21 05:10:22;;;;;;;7.20;6.50;;;;;;;-1.40;100.00;100908.97;5020621;28;20297;-73
2023/01/21 05:12:48;;;;;;;9.37;6.83;;;;;;;-1.39;100.00;100905.66;5021150;28;20241;-74
2023/01/21 05:15:13;;;;;;;9.00;6.90;;;;;;;-1.41;99.75;100905.59;5019059;28;20220;-73
2023/01/21 05:17:38;;;;;;;7.40;6.30;;;;;;;-1.45;99.89;100907.91;5014109;28;20688;-73
2023/01/21 05:20:04;;;;;;;7.27;6.57;;;;;;;-1.52;100.00;100909.25;5011439;28;20567;-73
2023/01/21 05:22:29;;;;;;;7.00;6.03;;;;;;;-1.59;99.90;100912.28;5025402;28;20212;-72
2023/01/21 05:24:55;;;;;;;7.07;6.37;;;;;;;-1.66;99.71;100907.69;5023696;28;20591;-75
2023/01/21 05:27:20;;;;;;;6.80;5.57;;;;;;;-1.71;99.64;100915.06;5017945;28;20212;-73
2023/01/21 05:29:46;;;;;;;6.17;5.57;;;;;;;-1.78;99.36;100906.25;5015409;28;20193;-73
2023/01/21 05:32:11;;;;;;;6.73;6.03;;;;;;;-1.84;99.56;100905.97;5021821;28;20220;-74
2023/01/21 05:34:37;;;;;;;6.20;5.60;;;;;;;-1.85;99.42;100916.91;5017936;28;20231;-73
2023/01/21 05:37:02;;;;;;;9.23;6.73;;;;;;;-1.84;99.30;100921.19;5019890;28;20276;-74
2023/01/21 05:39:27;;;;;;;9.00;6.40;;;;;;;-1.89;99.25;100918.38;5020646;28;20667;-75
2023/01/21 05:41:52;;;;;;;7.53;6.20;;;;;;;-1.88;98.89;100930.28;5024182;28;20292;-76
2023/01/21 05:44:18;;;;;;;7.03;6.23;;;;;;;-1.89;98.41;100918.38;5018898;28;20198;-76
2023/01/21 05:46:43;;;;;;;6.20;5.60;;;;;;;-1.94;98.38;100929.97;5012686;28;20188;-75
2023/01/21 05:49:08;;;;;;;6.77;6.07;;;;;;;-1.92;97.89;100930.94;5016227;28;20194;-74
2023/01/21 05:51:34;;;;;;;6.47;5.80;;;;;;;-1.84;96.17;100946.56;5018257;28;20251;-78
2023/01/21 05:53:59;;;;;;;6.20;5.60;;;;;;;-1.85;95.88;100939.72;5011221;28;20313;-75
2023/01/21 05:56:24;;;;;;;8.03;6.23;;;;;;;-1.79;95.47;100951.88;5016388;28;20601;-72
2023/01/21 05:58:49;;;;;;;7.10;6.10;;;;;;;-1.79;95.38;100951.88;5016199;28;20189;-76
2023/01/21 06:01:15;;;;;;;7.00;6.10;;;;;;;-1.76;95.43;100955.41;5015932;28;20463;-76
2023/01/21 06:03:40;;;;;;;8.47;7.67;;;;;;;-1.76;95.67;100959.63;5016149;28;20546;-77
2023/01/21 06:06:06;;;;;;;9.20;8.10;;;;;;;-1.74;97.79;100966.53;5021332;28;20684;-75
2023/01/21 06:08:31;;;;;;;9.10;8.17;;;;;;;-1.76;98.36;100975.72;5017561;28;20315;-75
2023/01/21 06:10:56;;;;;;;9.60;8.70;;;;;;;-1.75;98.77;100971.53;5015134;28;20791;-75
2023/01/21 06:13:23;;;;;;;10.87;9.07;;;;;;;-1.84;99.20;100980.41;5010757;28;20542;-72
2023/01/21 06:15:48;;;;;;;10.80;9.70;;;;;;;-1.84;100.00;100977.84;5017784;28;20217;-73
2023/01/21 06:18:14;;;;;;;10.70;9.63;;;;;;;-1.90;100.00;100977.56;5017251;28;20182;-73
2023/01/21 06:20:39;;;;;;;10.77;9.67;;;;;;;-1.92;100.00;100974.06;5015956;28;20248;-74
2023/01/21 06:23:05;;;;;;;12.13;10.63;;;;;;;-1.91;100.00;100988.50;5011899;28;20194;-74
2023/01/21 06:25:31;;;;;;;13.13;11.30;;;;;;;-1.96;100.00;100987.38;5018623;28;20216;-74
2023/01/21 06:27:56;;;;;;;13.77;12.13;;;;;;;-2.00;100.00;100998.13;5010855;28;20185;-78
2023/01/21 06:30:23;;;;;;;13.10;11.80;;;;;;;-2.07;100.00;100996.06;5016145;28;20203;-77
2023/01/21 06:32:48;;;;;;;14.73;13.13;;;;;;;-2.08;100.00;101005.31;5044386;28;20213;-78
2023/01/21 06:35:14;;;;;;;15.63;14.00;;;;;;;-2.14;100.00;101012.63;5031612;28;20204;-76
2023/01/21 06:37:40;;;;;;;16.77;14.90;;;;;;;-2.18;100.00;101011.56;5017504;28;20223;-72
2023/01/21 06:40:07;;;;;;;18.73;16.23;;;;;;;-2.19;100.00;101024.16;5024008;28;20529;-73
2023/01/21 06:42:32;;;;;;;18.50;16.47;;;;;;;-2.23;100.00;101025.66;5023600;28;20673;-71
2023/01/21 06:44:57;;;;;;;20.07;17.97;;;;;;;-2.26;100.00;101024.59;5019146;28;20210;-72
2023/01/21 06:47:23;;;;;;;19.73;17.63;;;;;;;-2.32;100.00;101020.06;5036181;28;20278;-72
2023/01/21 06:49:48;;;;;;;21.23;18.93;;;;;;;-2.35;100.00;101028.41;5019397;28;20223;-71
2023/01/21 06:52:13;;;;;;;22.57;20.07;;;;;;;-2.37;100.00;101036.72;5016483;28;20212;-75
2023/01/21 06:54:38;;;;;;;23.17;19.90;;;;;;;-2.42;100.00;101040.66;5022532;28;20294;-75
2023/01/21 06:57:04;;;;;;;25.00;21.33;;;;;;;-2.49;100.00;101031.81;5015991;28;20184;-75
2023/01/21 06:59:29;;;;;;;27.50;24.33;;;;;;;-2.49;100.00;101052.09;5019977;28;20212;-75
2023/01/21 07:01:57;;;;;;;28.00;24.17;;;;;;;-2.54;100.00;101061.09;5016125;28;20216;-76
2023/01/21 07:04:23;;;;;;;28.90;25.80;;;;;;;-2.61;100.00;101067.47;5018607;28;20188;-75
2023/01/21 07:06:48;;;;;;;31.77;26.63;;;;;;;-2.69;100.00;101067.03;5021038;28;20220;-75
2023/01/21 07:09:14;;;;;;;31.33;27.03;;;;;;;-2.74;100.00;101067.56;5019193;28;20283;-76
2023/01/21 07:11:39;;;;;;;30.30;26.57;;;;;;;-2.80;100.00;101070.63;5014430;28;21024;-75
2023/01/21 07:14:04;;;;;;;31.93;26.87;;;;;;;-2.82;100.00;101078.16;5020897;28;20215;-78
2023/01/21 07:16:30;;;;;;;37.77;29.80;;;;;;;-2.89;100.00;101073.50;5045140;28;20212;-77
2023/01/21 07:18:55;;;;;;;33.17;27.47;;;;;;;-2.89;100.00;101067.56;5049827;28;20196;-75
2023/01/21 07:21:20;;;;;;;34.77;27.93;;;;;;;-2.93;100.00;101089.28;5023261;28;20295;-77
2023/01/21 07:23:45;;;;;;;32.73;27.93;;;;;;;-2.93;100.00;101089.28;5022380;28;20670;-77
2023/01/21 07:26:11;;;;;;;32.07;27.33;;;;;;;-2.94;100.00;101085.91;5022175;28;20178;-76
2023/01/21 07:28:36;;;;;;;36.07;28.70;;;;;;;-2.94;100.00;101095.13;5028725;28;20222;-77
2023/01/21 07:31:03;;;;;;;34.03;27.63;;;;;;;-2.91;100.00;101087.72;5020519;28;20712;-74
2023/01/21 07:33:29;;;;;;;35.43;29.30;;;;;;;-2.91;100.00;101103.81;5040733;28;20197;-75
2023/01/21 07:35:54;;;;;;;35.63;29.37;;;;;;;-2.95;100.00;101104.41;5032772;28;20207;-75
2023/01/21 07:38:20;;;;;;;33.13;27.47;;;;;;;-2.95;100.00;101106.09;5036220;28;20193;-75
2023/01/21 07:40:49;;;;;;;34.83;28.33;;;;;;;-2.90;100.00;101107.22;5028138;28;20223;-74
2023/01/21 07:43:15;;;;;;;31.93;26.43;;;;;;;-2.87;100.00;101112.47;5027624;28;20189;-76
2023/01/21 07:45:41;;;;;;;31.37;25.93;;;;;;;-2.89;100.00;101111.50;5041237;28;20210;-75
2023/01/21 07:48:06;;;;;;;36.30;26.73;;;;;;;-2.88;100.00;101113.25;5037475;28;20185;-74
2023/01/21 07:50:33;;;;;;;31.93;25.50;;;;;;;-2.82;100.00;101116.16;5038595;28;20172;-75
2023/01/21 07:52:58;;;;;;;29.03;24.87;;;;;;;-2.82;100.00;101121.22;5037434;28;20556;-74
2023/01/21 07:55:24;;;;;;;29.77;24.37;;;;;;;-2.80;100.00;101123.81;5039305;28;20385;-75
2023/01/21 07:57:50;;;;;;;30.00;24.53;;;;;;;-2.76;100.00;101133.38;5038860;28;20242;-77
2023/01/21 08:00:16;;;;;;;30.93;24.60;;;;;;;-2.73;100.00;101133.56;5036437;28;20275;-76
2023/01/21 08:02:41;;;;;;;29.80;24.63;;;;;;;-2.71;100.00;101124.34;5022255;28;20197;-77
2023/01/21 08:05:07;;;;;;;30.17;24.67;;;;;;;-2.70;100.00;101133.69;5020895;28;20226;-78
2023/01/21 08:07:32;;;;;;;30.63;24.07;;;;;;;-2.69;100.00;101144.72;5020212;28;20285;-78
2023/01/21 08:09:58;;;;;;;27.93;23.33;;;;;;;-2.74;100.00;101144.47;5024706;28;20183;-75
2023/01/21 08:12:23;;;;;;;27.17;22.00;;;;;;;-2.71;100.00;101142.09;5025280;28;20577;-74
2023/01/21 08:14:48;;;;;;;25.77;21.70;;;;;;;-2.72;100.00;101154.69;5018196;28;20654;-76
2023/01/21 08:17:14;;;;;;;26.53;21.40;;;;;;;-2.71;100.00;101157.28;5026553;28;20210;-75
2023/01/21 08:19:39;;;;;;;23.63;19.90;;;;;;;-2.64;100.00;101151.81;5017836;28;20715;-75
2023/01/21 08:22:05;;;;;;;23.70;20.43;;;;;;;-2.61;100.00;101154.53;5016862;28;20213;-75
2023/01/21 08:24:30;;;;;;;23.70;19.40;;;;;;;-2.54;100.00;101144.72;5024059;28;20208;-75
2023/01/21 08:26:59;;;;;;;22.10;18.07;;;;;;;-2.47;100.00;101168.00;5020002;28;20263;-74
2023/01/21 08:29:26;;;;;;;22.03;18.50;;;;;;;-2.46;100.00;101153.69;5014679;28;20213;-75
2023/01/21 08:31:51;;;;;;;20.10;17.00;;;;;;;-2.42;100.00;101165.72;5013151;28;20224;-75
2023/01/21 08:34:17;;;;;;;19.50;16.20;;;;;;;-2.42;100.00;101152.19;5023318;28;20210;-76
2023/01/21 08:36:43;;;;;;;22.00;17.23;;;;;;;-2.37;100.00;101166.88;5018793;28;20194;-75
2023/01/21 08:39:11;;;;;;;19.83;15.73;;;;;;;-2.31;100.00;101164.69;5018390;28;20191;-75
2023/01/21 08:41:36;;;;;;;20.87;17.77;;;;;;;-2.25;100.00;101164.16;5015679;28;20231;-74
2023/01/21 08:44:01;;;;;;;20.23;16.40;;;;;;;-2.20;100.00;101169.50;5026579;28;20190;-76
2023/01/21 08:46:27;;;;;;;18.87;15.70;;;;;;;-2.17;100.00;101172.22;5022837;28;21061;-76
2023/01/21 08:48:52;;;;;;;17.20;14.93;;;;;;;-2.06;100.00;101171.16;5035111;28;20184;-75
2023/01/21 08:51:17;;;;;;;18.40;14.60;;;;;;;-1.89;100.00;101183.91;5021737;28;20211;-75
2023/01/21 08:53:42;;;;;;;18.30;15.83;;;;;;;-1.77;100.00;101186.28;5018213;28;20205;-76
2023/01/21 08:56:08;;;;;;;19.33;15.67;;;;;;;-1.69;100.00;101187.56;5019988;28;20236;-75
2023/01/21 08:58:33;;;;;;;20.23;15.10;;;;;;;-1.69;100.00;101206.22;5035248;28;20203;-74
2023/01/21 09:01:06;;;;;;;19.80;14.80;;;;;;;-1.67;100.00;101193.59;5026257;28;20240;-75
2023/01/21 09:03:31;;;;;;;18.27;15.13;;;;;;;-1.65;100.00;101199.66;5019452;28;20231;-75
2023/01/21 09:06:00;;;;;;;18.27;15.20;;;;;;;-1.64;100.00;101198.84;5020490;28;20189;-76
2023/01/21 09:08:25;;;;;;;18.40;14.23;;;;;;;-1.59;100.00;101215.19;5026515;28;20190;-75
2023/01/21 09:11:00;;;;;;;17.43;14.70;;;;;;;-1.57;100.00;101207.69;5012893;28;20218;-74
2023/01/21 09:13:26;;;;;;;18.47;15.03;;;;;;;-1.50;100.00;101207.22;5019690;28;20189;-75
2023/01/21 09:15:52;;;;;;;17.00;14.17;;;;;;;-1.48;100.00;101212.41;5016792;28;20218;-73
2023/01/21 09:18:17;;;;;;;16.23;13.40;;;;;;;-1.46;100.00;101209.13;5015138;28;20192;-73
2023/01/21 09:20:43;;;;;;;17.83;13.93;;;;;;;-1.35;100.00;101214.81;5028762;28;20684;-73
2023/01/21 09:23:23;;;;;;;17.77;14.60;;;;;;;-1.35;100.00;101217.34;5012907;28;20195;-75
2023/01/21 09:26:03;;;;;;;16.77;14.27;;;;;;;-1.31;100.00;101215.84;5016278;28;20633;-74
2023/01/21 09:28:29;;;;;;;17.17;13.83;;;;;;;-1.30;100.00;101215.06;5018675;28;20281;-74
2023/01/21 09:30:59;;;;;;;18.47;14.37;;;;;;;-1.23;100.00;101209.53;5045334;28;20224;-75
2023/01/21 09:33:26;;;;;;;16.33;14.50;;;;;;;-1.13;100.00;101215.94;5043347;28;20204;-76
2023/01/21 09:35:53;;;;;;;16.13;14.27;;;;;;;-1.03;100.00;101222.41;5027825;28;20763;-76
2023/01/21 09:38:19;;;;;;;16.00;14.30;;;;;;;-0.96;100.00;101221.94;5022175;28;20224;-74
2023/01/21 09:40:44;;;;;;;15.93;13.47;;;;;;;-0.95;100.00;101224.56;5018785;28;20228;-74
2023/01/21 09:43:17;;;;;;;18.87;14.73;;;;;;;-0.81;100.00;101238.00;5014600;28;20195;-75
2023/01/21 09:45:44;;;;;;;17.03;13.77;;;;;;;-0.78;100.00;101237.28;5018868;28;20192;-75
2023/01/21 09:48:18;;;;;;;18.57;14.47;;;;;;;-0.83;100.00;101233.66;5014521;28;20191;-75
2023/01/21 09:50:47;;;;;;;16.37;14.67;;;;;;;-0.78;100.00;101235.63;5015710;28;20207;-76
2023/01/21 09:53:38;;;;;;;17.53;14.37;;;;;;;-0.84;100.00;101240.38;5020356;28;20225;-76
2023/01/21 09:56:14;;;;;;;18.87;14.27;;;;;;;-0.78;100.00;101235.63;5020703;28;20246;-76
2023/01/21 09:58:50;;;;;;;15.77;14.07;;;;;;;-0.77;100.00;101236.50;5019188;28;20224;-77
2023/01/21 10:01:29;;;;;;;16.97;13.40;;;;;;;-0.67;100.00;101242.94;5018488;28;20225;-76
2023/01/21 10:03:54;;;;;;;16.70;13.93;;;;;;;-0.68;100.00;101233.56;5019628;28;20859;-77
2023/01/21 10:06:45;;;;;;;17.20;15.03;;;;;;;-0.57;100.00;101241.75;5019003;28;20282;-78
2023/01/21 10:09:28;;;;;;;17.20;14.43;;;;;;;-0.53;100.00;101236.03;5018392;28;20206;-76
2023/01/21 10:12:17;;;;;;;15.37;13.73;;;;;;;-0.60;100.00;101241.59;5013518;28;20206;-76
2023/01/21 10:14:45;;;;;;;21.00;13.93;;;;;;;-0.62;100.00;101247.47;5025680;28;20294;-73
2023/01/21 10:17:43;;;;;;;17.60;15.30;;;;;;;-0.50;100.00;101233.63;5024725;28;20706;-75
2023/01/21 10:20:22;;;;;;;17.13;14.63;;;;;;;-0.45;100.00;101244.91;5012593;28;20209;-75
2023/01/21 10:22:59;;;;;;;17.93;14.27;;;;;;;-0.43;100.00;101234.81;5012302;28;20187;-76
2023/01/21 10:25:30;;;;;;;17.50;13.57;;;;;;;-0.27;100.00;101228.84;5012888;28;20525;-76
2023/01/21 10:27:58;;;;;;;16.57;14.77;;;;;;;-0.22;100.00;101235.03;5011264;28;20301;-77
2023/01/21 10:30:30;;;;;;;16.80;14.90;;;;;;;-0.08;99.55;101239.16;5013752;28;20931;-74
2023/01/21 10:32:55;;;;;;;16.23;14.13;;;;;;;-0.03;99.04;101232.59;5014516;28;20202;-75
2023/01/21 10:35:35;;;;;;;17.63;15.47;;;;;;;0.03;99.47;101241.34;5014261;28;20922;-75
2023/01/21 10:38:12;;;;;;;14.77;13.17;;;;;;;0.01;98.90;101228.53;5013383;28;20273;-74
2023/01/21 10:40:54;;;;;;;16.73;13.97;;;;;;;-0.07;98.38;101232.38;5017084;28;21507;-74
2023/01/21 10:43:35;;;;;;;15.73;13.47;;;;;;;-0.10;98.66;101233.13;5015262;28;20220;-75
2023/01/21 10:46:30;;;;;;;15.90;13.30;;;;;;;-0.18;98.90;101222.56;5014276;28;20667;-75
2023/01/21 10:49:12;;;;;;;16.93;14.37;;;;;;;-0.15;99.05;101214.19;5013349;28;20482;-75
2023/01/21 10:51:51;;;;;;;16.53;13.60;;;;;;;-0.03;99.31;101219.03;5023420;28;20207;-75
2023/01/21 10:54:55;;;;;;;17.03;15.23;;;;;;;0.01;98.34;101220.03;5023240;28;20225;-74
2023/01/21 10:57:48;;;;;;;19.47;16.03;;;;;;;0.03;98.39;101214.22;5021888;28;20182;-76
2023/01/21 11:00:24;;;;;;;16.83;14.77;;;;;;;-0.09;98.41;101214.50;5019155;28;20219;-75
2023/01/21 11:02:54;;;;;;;20.00;17.90;;;;;;;-0.08;99.01;101225.56;5021221;28;20221;-74
2023/01/21 11:05:21;;;;;;;18.07;16.00;;;;;;;-0.08;98.93;101221.34;5020414;28;20262;-74
2023/01/21 11:07:48;;;;;;;21.10;17.67;;;;;;;-0.12;99.63;101231.28;5020945;28;20175;-75
2023/01/21 11:10:32;;;;;;;18.73;16.73;;;;;;;0.02;99.29;101219.25;5024767;28;20187;-75
2023/01/21 11:12:57;;;;;;;19.80;17.07;;;;;;;0.04;98.67;101218.50;5020693;28;20821;-75
2023/01/21 11:15:23;;;;;;;18.77;16.77;;;;;;;0.10;98.65;101217.94;5018188;28;20203;-74
2023/01/21 11:17:55;;;;;;;20.00;17.90;;;;;;;0.07;98.55;101225.44;5016017;28;20245;-76
2023/01/21 11:20:28;;;;;;;19.77;17.63;;;;;;;-0.01;98.89;101225.06;5016551;28;20186;-77
2023/01/21 11:22:53;;;;;;;19.77;17.67;;;;;;;-0.04;98.53;101218.13;5018160;28;21022;-77
2023/01/21 11:25:41;;;;;;;20.20;16.83;;;;;;;-0.04;98.59;101218.13;5021547;28;20731;-76
2023/01/21 11:28:25;;;;;;;19.53;17.43;;;;;;;0.09;98.68;101212.00;5020629;28;20254;-75
2023/01/21 11:31:05;;;;;;;17.70;15.80;;;;;;;0.13;97.28;101203.72;5025828;28;20201;-75
2023/01/21 11:33:31;;;;;;;20.00;16.07;;;;;;;0.20;97.02;101212.50;5020443;28;20206;-75